Weather observations for the past three days for
Hatteras, Mitchell Field
Metric (Imperial)
Date Time (edt) Wind (kph) Vis. (km) Weather Sky Cond. Temperature (ºC) Relative Humidity Wind Chill (°C) Heat Index (°C) Pressure Precipitation (cm)
Air Dwpt 6 hour altimeter (cm) sea level (mb) 1 hr 3 hr 6 hr
Max. Min.
03 02:51 W 6 14.48 Fair CLR 27.2 25 88% 31 76.28 1016.7
03 01:51 Vrbl 7 16.09 Fair CLR 27.2 25.6 28.3 27.2 91% 31 76.3 1017.0
03 00:51 SW 7 16.09 Fair CLR 27.2 26.1 94% 32 76.28 1016.9
02 23:51 W 6 16.09 Fair CLR 27.8 25.6 88% 33 76.3 1017.2
02 22:51 SW 9 16.09 Fair CLR 27.8 25.6 88% 33 76.3 1017.2
02 21:51 SW 11 16.09 Fair CLR 27.8 25 85% 32 76.28 1017.0
02 20:51 SW 13 16.09 Fair CLR 28.3 25 82% 33 76.28 1016.8
02 19:51 SW 11 16.09 Fair CLR 28.3 25.6 31.1 28.3 85% 34 76.3 1017.1
02 18:51 SW 7 16.09 Fair CLR 28.9 25 80% 34 76.3 1017.2
02 17:51 SW 11 16.09 Fair CLR 29.4 25 77% 35 76.3 1017.3
02 16:51 S 13 16.09 Fair CLR 30.6 24.4 70% 36 76.25 1016.6
02 15:51 SW 15 16.09 Fair CLR 30.6 25 72% 37 76.3 1017.1
02 14:51 SW 15 16.09 Fair CLR 30.6 26.1 77% 39 76.33 1017.4
02 13:51 SW 13 16.09 Fair CLR 31.1 25.6 32.2 27.8 73% 39 76.35 1017.8
02 12:51 SW 15 16.09 Fair CLR 30.6 25.6 75% 38 76.35 1017.9
02 11:51 SW 9 16.09 Fair CLR 30.6 24.4 70% 36 76.35 1017.9
02 10:51 Vrbl 9 16.09 Fair CLR 30.6 23.3 65% 35 76.35 1018.0
02 09:51 SW 15 16.09 Fair CLR 28.9 25 80% 34 76.33 1017.6
02 08:51 Vrbl 9 16.09 Fair CLR 28.3 25.6 85% 34 76.35 1017.7
02 07:51 Vrbl 6 8.05 Fog/Mist CLR 27.8 25.6 27.8 26.7 88% 33 76.35 1017.9
02 06:51 Vrbl 7 9.66 Fog/Mist CLR 26.7 25 90% 30 76.33 1017.5
02 05:51 Vrbl 9 14.48 Fair CLR 26.7 25 90% 30 76.33 1017.4
02 04:51 W 9 16.09 Fair CLR 26.7 25 90% 30 76.3 1017.3
02 03:51 W 9 16.09 Fair CLR 27.2 25 88% 31 76.3 1017.1
02 02:51 Vrbl 7 16.09 Fair CLR 27.2 25 88% 31 76.35 1017.7
02 01:51 W 11 16.09 Fair CLR 27.8 24.4 28.3 27.8 82% 32 76.35 1017.8
02 00:51 Vrbl 7 16.09 Fair CLR 27.8 23.9 79% 32 76.35 1017.7
01 23:51 SW 11 16.09 Fair CLR 27.8 23.9 79% 32 76.3 1017.3
01 22:51 SW 13 16.09 Fair CLR 27.8 23.9 79% 32 76.28 1016.9
01 20:51 SW 13 16.09 Fair CLR 28.3 23.9 77% 32 76.28 1016.7
01 19:51 SW 13 16.09 Fair CLR 28.3 23.9 30.6 28.3 77% 32 76.25 1016.6
01 18:51 S 13 16.09 Fair CLR 28.3 22.8 72% 32 76.3 1017.0
01 17:51 S 15 16.09 Fair CLR 29.4 23.3 70% 34 76.28 1017.0
01 16:51 S 13 16.09 Fair CLR 30 23.9 70% 35 76.3 1017.1
01 15:51 S 13 16.09 Fair CLR 30.6 23.9 67% 36 76.33 1017.5
01 14:51 S 11 16.09 Fair CLR 30.6 23.9 67% 36 76.35 1017.8
01 13:51 Vrbl 7 16.09 Fair CLR 30.6 23.9 30.6 25.6 67% 36 76.38 1018.4
01 12:51 SW 11 16.09 Fair CLR 29.4 23.9 72% 34 76.4 1018.4
01 11:51 NW 7 16.09 Fair CLR 29.4 23.3 70% 34 76.4 1018.5
01 10:51 NW 9 16.09 Fair CLR 28.9 24.4 77% 34 76.43 1019.0
01 09:51 Vrbl 9 16.09 Mostly Cloudy BKN016 28.9 24.4 77% 34 76.43 1018.9
01 08:51 Calm 16.09 A Few Clouds FEW021 28.3 23.9 77% 32 76.43 1018.9
01 07:51 Calm 16.09 A Few Clouds FEW018 25.6 25 25.6 22.2 97% 27 76.4 1018.4
01 06:51 Calm 14.48 A Few Clouds FEW020 23.9 23.3 96% 23 76.38 1018.1
01 05:51 Calm 16.09 Partly Cloudy SCT018 SCT022 23.3 22.8 97% 76.35 1017.8
01 04:51 Calm 16.09 A Few Clouds FEW016 22.8 22.2 96% 76.35 1017.9
01 03:51 Calm 16.09 Fair CLR 22.8 22.2 96% 76.38 1018.1
01 02:51 Calm 16.09 Fair CLR 23.3 22.8 97% 76.38 1018.3
01 01:51 Calm 16.09 Fair CLR 23.3 22.8 26.1 22.8 97% 76.4 1018.5
01 00:51 Calm 16.09 Fair CLR 23.3 22.2 94% 76.4 1018.7
31 23:51 Calm 16.09 Fair CLR 23.3 22.8 97% 76.43 1018.8
31 22:51 Calm 16.09 Fair CLR 23.9 22.8 94% 23 76.43 1018.8
31 21:51 Calm 16.09 Fair CLR 23.9 22.8 94% 23 76.43 1018.9
31 20:51 SE 7 16.09 Fair CLR 25.6 23.3 87% 27 76.4 1018.5
31 19:51 E 7 16.09 Fair CLR 25.6 22.8 31.1 25.6 85% 27 76.4 1018.4
31 18:51 SE 9 16.09 Fair CLR 27.8 23.3 77% 31 76.4 1018.5
31 17:51 SE 11 16.09 Fair CLR 28.9 22.8 70% 32 76.4 1018.6
31 16:51 SE 9 16.09 Fair CLR 29.4 22.8 68% 33 76.38 1018.2
31 15:51 Vrbl 7 16.09 Fair CLR 30.6 22.8 63% 35 76.4 1018.6
31 14:51 SE 9 16.09 Fair CLR 30.6 22.2 61% 34 76.45 1019.3
31 13:51 Vrbl 6 12.87 Partly Cloudy SCT029 30.6 23.3 30.6 26.7 65% 35 76.48 1019.6
31 12:51 E 7 16.09 A Few Clouds FEW027 29.4 22.2 65% 33 76.5 1020.0
31 11:51 Vrbl 7 16.09 Fair CLR 29.4 22.2 65% 33 76.53 1020.2
31 10:51 Vrbl 7 16.09 Fair CLR 28.9 23.3 72% 33 76.53 1020.2
31 09:51 Vrbl 6 16.09 Fair CLR 28.3 23.3 74% 32 76.48 1019.7
31 08:51 Vrbl 6 16.09 Partly Cloudy SCT014 27.8 24.4 82% 32 76.48 1019.4
31 07:51 Calm 16.09 Fair CLR 26.7 24.4 26.7 23.3 87% 30 76.43 1018.9
31 06:51 N 6 16.09 A Few Clouds FEW011 25.6 24.4 93% 27 76.45 1019.2
31 05:51 N 6 16.09 Fair CLR 24.4 23.3 94% 24 76.43 1018.8
31 04:51 NW 6 16.09 Fair CLR 23.3 22.8 97% 76.4 1018.5
31 03:51 Calm 16.09 Fair CLR 23.9 23.3 96% 23 76.4 1018.7
Date Time (edt) Wind (kph) Vis. (km) Weather Sky Cond. Air Dwpt Max. Min. Relative Humidity Wind Chill (°C) Heat Index (°C) altimeter (cm) sea level (mb) 1 hr 3 hr 6 hr
6 hour
Temperature (ºC) Pressure Precipitation (cm)